createdAt,value
2022-12-01T00:02:08.016Z,15.15
2022-12-01T00:06:16.306Z,16.00
2022-12-01T00:10:27.343Z,17.13
2022-12-01T00:14:29.445Z,15.07
2022-12-01T00:18:31.472Z,12.65
2022-12-01T00:22:33.988Z,12.98
2022-12-01T00:26:38.280Z,17.77
2022-12-01T00:30:40.487Z,17.80
2022-12-01T00:34:42.622Z,19.05
2022-12-01T00:38:45.440Z,13.70
2022-12-01T00:42:47.557Z,15.60
2022-12-01T00:46:50.123Z,13.07
2022-12-01T00:50:53.542Z,13.68
2022-12-01T00:54:55.694Z,17.05
2022-12-01T00:58:57.770Z,10.82
2022-12-01T01:02:59.842Z,10.65
2022-12-01T01:07:01.903Z,12.65
2022-12-01T01:11:05.531Z,11.68
2022-12-01T01:15:08.613Z,11.43
2022-12-01T01:19:10.783Z,15.70
2022-12-01T01:23:12.916Z,11.82
2022-12-01T01:27:15.052Z,11.77
2022-12-01T01:31:20.944Z,9.50
2022-12-01T01:35:23.488Z,11.85
2022-12-01T01:39:25.517Z,9.98
2022-12-01T01:44:01.881Z,11.02
2022-12-01T01:48:04.537Z,10.68
2022-12-01T01:52:06.679Z,11.32
2022-12-01T01:56:09.361Z,10.20
2022-12-01T02:00:15.577Z,10.85
2022-12-01T02:04:20.680Z,11.75
2022-12-01T02:08:22.973Z,8.40
2022-12-01T02:12:55.877Z,6.40
2022-12-01T02:17:41.505Z,6.72
2022-12-01T02:22:09.281Z,11.98
2022-12-01T02:26:33.498Z,12.60
2022-12-01T02:30:51.455Z,9.93
2022-12-01T02:35:15.777Z,10.60
2022-12-01T02:39:28.104Z,11.40
2022-12-01T02:43:42.471Z,11.10
2022-12-01T02:47:46.132Z,10.93
2022-12-01T02:51:51.149Z,7.77
2022-12-01T02:55:55.829Z,11.85
2022-12-01T03:00:00.122Z,9.85
2022-12-01T03:04:26.845Z,9.18
2022-12-01T03:08:32.877Z,8.52
2022-12-01T03:13:05.720Z,9.88
2022-12-01T03:17:17.325Z,13.73
2022-12-01T03:21:28.472Z,12.18
2022-12-01T03:25:31.965Z,16.67
2022-12-01T03:29:41.539Z,13.52
2022-12-01T03:33:50.591Z,15.10
2022-12-01T03:38:03.103Z,15.90
2022-12-01T03:42:28.234Z,14.05
2022-12-01T03:46:59.221Z,10.85
2022-12-01T03:51:01.178Z,15.60
2022-12-01T03:55:30.298Z,15.18
2022-12-01T03:59:36.544Z,13.90
2022-12-01T04:03:39.237Z,13.38
2022-12-01T04:07:41.336Z,12.98
2022-12-01T04:12:01.958Z,13.80
2022-12-01T04:16:04.392Z,12.32
2022-12-01T04:20:08.017Z,13.57
2022-12-01T04:24:12.606Z,12.02
2022-12-01T04:28:14.929Z,15.37
2022-12-01T04:32:17.105Z,14.93
2022-12-01T04:36:19.188Z,12.90
2022-12-01T04:40:21.914Z,13.23
2022-12-01T04:44:23.986Z,15.27
2022-12-01T04:48:26.097Z,13.13
2022-12-01T04:52:33.633Z,13.48
2022-12-01T04:56:37.312Z,14.55
2022-12-01T05:00:39.500Z,15.57
2022-12-01T05:04:42.256Z,14.15
2022-12-01T05:08:45.001Z,14.55
2022-12-01T05:12:47.157Z,16.67
2022-12-01T05:16:49.396Z,17.13
2022-12-01T05:20:57.961Z,17.40
2022-12-01T05:25:01.138Z,16.88
2022-12-01T05:29:04.061Z,14.40
2022-12-01T05:33:06.164Z,12.82
2022-12-01T05:37:08.564Z,12.52
2022-12-01T05:41:11.553Z,17.70
2022-12-01T05:45:13.644Z,14.63
2022-12-01T05:49:15.811Z,13.95
2022-12-01T05:53:19.249Z,16.58
2022-12-01T05:57:21.387Z,11.93
2022-12-01T06:01:23.495Z,12.35
2022-12-01T06:05:25.666Z,16.02
2022-12-01T06:09:27.751Z,17.67
2022-12-01T06:13:29.836Z,15.43
2022-12-01T06:17:34.621Z,14.10
2022-12-01T06:21:41.572Z,21.38
2022-12-01T06:25:44.085Z,25.48
2022-12-01T06:29:46.148Z,16.90
2022-12-01T06:33:48.913Z,15.23
2022-12-01T06:37:54.437Z,13.00
2022-12-01T06:41:56.519Z,13.10
2022-12-01T06:46:01.966Z,16.20
2022-12-01T06:50:08.952Z,16.70
2022-12-01T06:54:14.653Z,14.48
2022-12-01T06:58:17.061Z,12.80
2022-12-01T07:02:20.198Z,16.58
2022-12-01T07:06:22.637Z,14.27
2022-12-01T07:10:24.670Z,16.35
2022-12-01T07:14:28.045Z,17.08
2022-12-01T07:18:30.525Z,22.42
2022-12-01T07:22:33.132Z,16.50
2022-12-01T07:26:35.472Z,17.98
2022-12-01T07:30:37.567Z,22.17
2022-12-01T07:34:40.083Z,17.05
2022-12-01T07:38:42.580Z,16.60
2022-12-01T07:42:44.737Z,18.98
2022-12-01T07:46:47.463Z,18.20
2022-12-01T07:50:49.585Z,19.17
2022-12-01T07:54:52.770Z,23.35
2022-12-01T07:58:55.160Z,15.63
2022-12-01T08:02:57.280Z,19.35
2022-12-01T08:06:59.495Z,19.30
2022-12-01T08:11:07.062Z,17.63
2022-12-01T08:15:09.624Z,20.17
2022-12-01T08:19:12.052Z,20.23
2022-12-01T08:23:14.094Z,17.05
2022-12-01T08:27:16.165Z,19.23
2022-12-01T08:31:30.355Z,22.15
2022-12-01T08:35:35.777Z,17.35
2022-12-01T08:39:41.003Z,18.92
2022-12-01T08:44:01.111Z,22.05
2022-12-01T08:48:03.935Z,16.50
2022-12-01T08:52:06.217Z,20.05
2022-12-01T08:56:12.676Z,20.13
2022-12-01T09:00:15.672Z,20.98
2022-12-01T09:04:22.825Z,36.03
2022-12-01T09:08:35.522Z,24.10
2022-12-01T09:12:39.089Z,9.80
2022-12-01T09:16:42.968Z,8.48
2022-12-01T09:20:45.052Z,6.72
2022-12-01T09:24:47.860Z,6.93
2022-12-01T09:28:54.206Z,7.53
2022-12-01T09:32:56.433Z,4.90
2022-12-01T09:36:58.972Z,6.45
2022-12-01T09:41:05.944Z,5.95
2022-12-01T09:45:18.945Z,4.72
2022-12-01T09:49:25.406Z,4.13
2022-12-01T09:53:29.757Z,3.20
2022-12-01T10:01:43.047Z,2.60
2022-12-01T10:06:18.641Z,2.05
2022-12-01T10:10:25.049Z,3.13
2022-12-01T10:14:29.843Z,6.35
2022-12-01T10:19:01.391Z,1.52
2022-12-01T10:23:25.207Z,3.13
2022-12-01T10:27:30.423Z,2.10
2022-12-01T10:31:39.278Z,5.40
2022-12-01T10:35:41.911Z,4.38
2022-12-01T10:39:46.668Z,1.60
2022-12-01T10:43:52.251Z,3.65
2022-12-01T10:48:15.400Z,1.40
2022-12-01T10:52:40.686Z,1.65
2022-12-01T10:56:47.876Z,2.20
2022-12-01T11:01:03.653Z,1.45
2022-12-01T11:05:22.685Z,1.60
2022-12-01T11:09:28.622Z,1.60
2022-12-01T11:13:35.119Z,2.03
2022-12-01T11:17:42.274Z,1.98
2022-12-01T11:21:53.386Z,2.92
2022-12-01T11:26:00.388Z,2.28
2022-12-01T11:30:06.855Z,2.60
2022-12-01T11:34:38.844Z,2.00
2022-12-01T11:38:40.960Z,2.10
2022-12-01T11:42:49.923Z,1.35
2022-12-01T11:47:07.861Z,1.90
2022-12-01T11:51:20.618Z,2.63
2022-12-01T11:55:28.673Z,3.10
2022-12-01T11:59:30.682Z,2.75
2022-12-01T12:03:43.264Z,1.50
2022-12-01T12:08:05.819Z,2.10
2022-12-01T12:12:16.873Z,1.85
2022-12-01T12:16:26.376Z,1.58
2022-12-01T12:20:52.139Z,1.10
2022-12-01T12:25:13.634Z,2.00
2022-12-01T12:29:42.372Z,2.40
2022-12-01T12:34:11.311Z,3.75
2022-12-01T12:38:54.800Z,3.53
2022-12-01T12:43:30.532Z,3.78
2022-12-01T12:48:03.269Z,4.78
2022-12-01T12:52:10.822Z,4.00
2022-12-01T12:56:17.234Z,2.25
2022-12-01T13:00:23.593Z,1.92
2022-12-01T13:04:45.550Z,3.67
2022-12-01T13:08:56.215Z,2.20
2022-12-01T13:13:24.984Z,3.38
2022-12-01T13:17:52.227Z,3.20
2022-12-01T13:21:55.973Z,3.10
2022-12-01T13:26:01.369Z,2.77
2022-12-01T13:30:04.315Z,2.22
2022-12-01T13:34:06.598Z,2.58
2022-12-01T13:38:30.370Z,1.88
2022-12-01T13:42:34.614Z,3.42
2022-12-01T13:46:42.855Z,1.88
2022-12-01T13:50:47.611Z,2.70
2022-12-01T13:55:03.990Z,2.10
2022-12-01T14:00:03.551Z,4.03
2022-12-01T14:04:38.024Z,3.33
2022-12-01T14:08:49.386Z,2.10
2022-12-01T14:12:54.445Z,2.42
2022-12-01T14:17:01.050Z,2.47
2022-12-01T14:21:11.511Z,3.45
2022-12-01T14:25:25.804Z,3.08
2022-12-01T14:29:43.080Z,3.00
2022-12-01T14:34:07.416Z,2.03
2022-12-01T14:38:11.148Z,5.57
2022-12-01T14:42:52.595Z,2.73
2022-12-01T14:47:02.414Z,3.35
2022-12-01T14:51:27.655Z,2.88
2022-12-01T14:55:43.697Z,2.83
2022-12-01T14:59:46.084Z,5.78
2022-12-01T15:03:52.071Z,5.03
2022-12-01T15:08:40.124Z,4.20
2022-12-01T15:12:35.653Z,3.83
2022-12-01T15:16:43.585Z,2.22
2022-12-01T15:20:47.912Z,3.00
2022-12-01T15:24:51.828Z,2.40
2022-12-01T15:29:18.080Z,2.63
2022-12-01T15:33:37.032Z,3.22
2022-12-01T15:37:43.387Z,3.35
2022-12-01T15:41:53.879Z,5.88
2022-12-01T15:46:02.235Z,2.75
2022-12-01T15:50:06.273Z,2.95
2022-12-01T15:54:20.992Z,2.47
2022-12-01T15:58:26.428Z,3.58
2022-12-01T16:02:31.984Z,2.38
2022-12-01T16:06:37.067Z,3.90
2022-12-01T16:10:39.254Z,5.78
2022-12-01T16:14:52.900Z,6.78
2022-12-01T16:19:00.542Z,5.72
2022-12-01T16:23:05.520Z,4.95
2022-12-01T16:27:22.048Z,25.20
2022-12-01T16:31:26.285Z,30.38
2022-12-01T16:35:31.563Z,52.95
2022-12-01T16:39:33.572Z,30.58
2022-12-01T16:43:35.697Z,23.38
2022-12-01T16:47:37.812Z,30.58
2022-12-01T16:51:55.266Z,31.05
2022-12-01T16:56:00.930Z,19.23
2022-12-01T17:00:03.592Z,23.73
2022-12-01T17:04:07.713Z,25.45
2022-12-01T17:08:10.185Z,24.95
2022-12-01T17:12:12.387Z,22.10
2022-12-01T17:16:18.431Z,23.90
2022-12-01T17:20:20.960Z,34.03
2022-12-01T17:24:23.516Z,25.67
2022-12-01T17:28:25.998Z,24.23
2022-12-01T17:32:28.586Z,13.75
2022-12-01T17:36:30.742Z,16.55
2022-12-01T17:40:32.805Z,17.85
2022-12-01T17:44:35.539Z,19.45
2022-12-01T17:48:39.503Z,47.78
2022-12-01T17:52:41.758Z,27.30
2022-12-01T17:56:43.963Z,28.77
2022-12-01T18:00:46.087Z,15.48
2022-12-01T18:04:48.428Z,15.82
2022-12-01T18:08:50.885Z,13.02
2022-12-01T18:12:53.021Z,13.23
2022-12-01T18:16:55.319Z,13.50
2022-12-01T18:20:57.397Z,20.65
2022-12-01T18:24:59.531Z,16.52
2022-12-01T18:29:07.736Z,18.92
2022-12-01T18:33:12.448Z,14.38
2022-12-01T18:41:30.438Z,19.23
2022-12-01T18:45:33.497Z,19.42
2022-12-01T18:49:38.914Z,28.20
2022-12-01T18:53:45.561Z,24.30
2022-12-01T18:57:53.032Z,19.13
2022-12-01T19:01:57.502Z,19.17
2022-12-01T19:05:59.826Z,15.48
2022-12-01T19:15:36.596Z,15.38
2022-12-01T19:19:46.335Z,10.07
2022-12-01T19:23:48.816Z,13.25
2022-12-01T19:27:53.383Z,9.38
2022-12-01T19:35:57.621Z,14.88
2022-12-01T19:40:00.513Z,18.17
2022-12-01T19:44:02.788Z,38.47
2022-12-01T19:48:06.141Z,17.80
2022-12-01T19:52:08.467Z,35.38
2022-12-01T19:56:10.517Z,13.73
2022-12-01T20:00:13.078Z,14.57
2022-12-01T20:04:16.471Z,19.27
2022-12-01T20:08:19.741Z,16.90
2022-12-01T20:12:21.914Z,18.38
2022-12-01T20:16:26.805Z,20.70
2022-12-01T20:20:29.399Z,16.85
2022-12-01T20:24:31.682Z,26.13
2022-12-01T20:28:36.065Z,21.63
2022-12-01T20:36:40.898Z,14.68
2022-12-01T20:40:43.496Z,12.23
2022-12-01T20:44:47.659Z,12.43
2022-12-01T20:48:50.309Z,13.25
2022-12-01T20:52:52.581Z,12.65
2022-12-01T20:56:54.795Z,9.48
2022-12-01T21:00:57.023Z,12.65
2022-12-01T21:04:59.586Z,11.45
2022-12-01T21:09:03.174Z,12.82
2022-12-01T21:13:41.801Z,12.27
2022-12-01T21:18:01.000Z,9.90
2022-12-01T21:22:10.247Z,15.45
2022-12-01T21:26:16.403Z,12.80
2022-12-01T21:30:26.210Z,8.82
2022-12-01T21:34:29.579Z,8.35
2022-12-01T21:38:32.051Z,8.80
2022-12-01T21:42:36.974Z,11.80
2022-12-01T21:46:42.538Z,12.00
2022-12-01T21:50:50.949Z,9.80
2022-12-01T21:55:29.395Z,12.27
2022-12-01T21:59:32.474Z,13.00
2022-12-01T22:03:39.774Z,9.40
2022-12-01T22:07:41.948Z,14.00
2022-12-01T22:11:48.221Z,10.70
2022-12-01T22:15:52.790Z,16.15
2022-12-01T22:20:01.393Z,14.75
2022-12-01T22:24:09.532Z,13.48
2022-12-01T22:28:19.999Z,12.43
2022-12-01T22:32:33.105Z,11.32
2022-12-01T22:36:35.126Z,10.35
2022-12-01T22:40:47.835Z,17.00
2022-12-01T22:44:50.140Z,13.95
2022-12-01T22:48:55.712Z,11.30
2022-12-01T22:53:06.534Z,9.95
2022-12-01T22:57:17.520Z,12.32
2022-12-01T23:01:28.086Z,10.65
2022-12-01T23:05:31.012Z,14.68
2022-12-01T23:09:37.850Z,13.20
2022-12-01T23:13:39.912Z,13.70
2022-12-01T23:17:41.932Z,13.45
2022-12-01T23:21:44.226Z,18.58
2022-12-01T23:25:49.349Z,15.48
2022-12-01T23:29:51.502Z,14.45
2022-12-01T23:33:53.680Z,13.98
2022-12-01T23:37:55.974Z,13.82
2022-12-01T23:41:59.015Z,11.98
2022-12-01T23:46:11.698Z,12.80
2022-12-01T23:50:20.251Z,15.20
2022-12-01T23:54:29.592Z,14.63
2022-12-01T23:58:31.885Z,17.48
